sensor_id;sensor_type;location;lat;lon;timestamp;P1;durP1;ratioP1;P2;durP2;ratioP2
20671;SDS011;10495;50.922;4.760;2024-02-04T00:01:02;3.60;;;2.23;;
20671;SDS011;10495;50.922;4.760;2024-02-04T00:03:28;4.17;;;2.40;;
20671;SDS011;10495;50.922;4.760;2024-02-04T00:05:54;2.30;;;1.77;;
20671;SDS011;10495;50.922;4.760;2024-02-04T00:08:19;4.07;;;1.60;;
20671;SDS011;10495;50.922;4.760;2024-02-04T00:10:45;4.20;;;2.57;;
20671;SDS011;10495;50.922;4.760;2024-02-04T00:13:10;2.93;;;2.17;;
20671;SDS011;10495;50.922;4.760;2024-02-04T00:15:36;5.33;;;1.80;;
20671;SDS011;10495;50.922;4.760;2024-02-04T00:18:02;1.67;;;1.43;;
20671;SDS011;10495;50.922;4.760;2024-02-04T00:20:27;5.23;;;1.83;;
20671;SDS011;10495;50.922;4.760;2024-02-04T00:22:54;2.80;;;1.53;;
20671;SDS011;10495;50.922;4.760;2024-02-04T00:25:20;4.10;;;1.60;;
20671;SDS011;10495;50.922;4.760;2024-02-04T00:27:45;4.53;;;2.40;;
20671;SDS011;10495;50.922;4.760;2024-02-04T00:30:11;1.87;;;1.50;;
20671;SDS011;10495;50.922;4.760;2024-02-04T00:32:37;2.10;;;1.47;;
20671;SDS011;10495;50.922;4.760;2024-02-04T00:35:02;2.50;;;1.80;;
20671;SDS011;10495;50.922;4.760;2024-02-04T00:37:28;2.37;;;1.80;;
20671;SDS011;10495;50.922;4.760;2024-02-04T00:39:54;2.73;;;1.90;;
20671;SDS011;10495;50.922;4.760;2024-02-04T00:42:20;2.23;;;1.37;;
20671;SDS011;10495;50.922;4.760;2024-02-04T00:44:45;1.70;;;1.43;;
20671;SDS011;10495;50.922;4.760;2024-02-04T00:47:11;5.63;;;1.83;;
20671;SDS011;10495;50.922;4.760;2024-02-04T00:49:38;2.30;;;1.53;;
20671;SDS011;10495;50.922;4.760;2024-02-04T00:52:04;1.77;;;1.17;;
20671;SDS011;10495;50.922;4.760;2024-02-04T00:54:30;1.70;;;1.07;;
20671;SDS011;10495;50.922;4.760;2024-02-04T00:56:55;1.63;;;1.10;;
20671;SDS011;10495;50.922;4.760;2024-02-04T00:59:22;1.87;;;0.97;;
20671;SDS011;10495;50.922;4.760;2024-02-04T01:01:48;1.27;;;0.90;;
20671;SDS011;10495;50.922;4.760;2024-02-04T01:04:13;1.77;;;1.50;;
20671;SDS011;10495;50.922;4.760;2024-02-04T01:06:39;2.67;;;1.83;;
20671;SDS011;10495;50.922;4.760;2024-02-04T01:09:04;2.77;;;1.77;;
20671;SDS011;10495;50.922;4.760;2024-02-04T01:11:30;2.57;;;1.70;;
20671;SDS011;10495;50.922;4.760;2024-02-04T01:13:56;2.23;;;1.43;;
20671;SDS011;10495;50.922;4.760;2024-02-04T01:16:22;2.43;;;1.73;;
20671;SDS011;10495;50.922;4.760;2024-02-04T01:18:47;1.53;;;1.20;;
20671;SDS011;10495;50.922;4.760;2024-02-04T01:21:13;3.13;;;2.10;;
20671;SDS011;10495;50.922;4.760;2024-02-04T01:23:39;1.67;;;1.40;;
20671;SDS011;10495;50.922;4.760;2024-02-04T01:26:04;1.97;;;1.57;;
20671;SDS011;10495;50.922;4.760;2024-02-04T01:28:30;2.27;;;1.13;;
20671;SDS011;10495;50.922;4.760;2024-02-04T01:30:56;1.57;;;1.40;;
20671;SDS011;10495;50.922;4.760;2024-02-04T01:33:21;2.73;;;1.70;;
20671;SDS011;10495;50.922;4.760;2024-02-04T01:35:47;4.27;;;2.23;;
20671;SDS011;10495;50.922;4.760;2024-02-04T01:38:13;1.87;;;1.30;;
20671;SDS011;10495;50.922;4.760;2024-02-04T01:40:38;2.10;;;1.40;;
20671;SDS011;10495;50.922;4.760;2024-02-04T01:43:04;4.47;;;1.73;;
20671;SDS011;10495;50.922;4.760;2024-02-04T01:45:30;1.57;;;1.17;;
20671;SDS011;10495;50.922;4.760;2024-02-04T01:47:56;1.83;;;1.70;;
20671;SDS011;10495;50.922;4.760;2024-02-04T01:50:22;2.80;;;1.47;;
20671;SDS011;10495;50.922;4.760;2024-02-04T01:52:48;2.23;;;1.60;;
20671;SDS011;10495;50.922;4.760;2024-02-04T01:55:15;1.73;;;1.40;;
20671;SDS011;10495;50.922;4.760;2024-02-04T01:57:41;2.90;;;1.60;;
20671;SDS011;10495;50.922;4.760;2024-02-04T02:00:08;3.43;;;1.93;;
20671;SDS011;10495;50.922;4.760;2024-02-04T02:02:34;2.23;;;0.97;;
20671;SDS011;10495;50.922;4.760;2024-02-04T02:05:05;1.90;;;1.27;;
20671;SDS011;10495;50.922;4.760;2024-02-04T02:07:31;1.87;;;1.37;;
20671;SDS011;10495;50.922;4.760;2024-02-04T02:09:56;1.53;;;1.27;;
20671;SDS011;10495;50.922;4.760;2024-02-04T02:14:54;2.40;;;1.40;;
20671;SDS011;10495;50.922;4.760;2024-02-04T02:17:28;1.77;;;1.20;;
20671;SDS011;10495;50.922;4.760;2024-02-04T02:20:12;1.57;;;1.33;;
20671;SDS011;10495;50.922;4.760;2024-02-04T02:22:50;7.23;;;3.20;;
20671;SDS011;10495;50.922;4.760;2024-02-04T02:25:25;4.10;;;1.80;;
20671;SDS011;10495;50.922;4.760;2024-02-04T02:27:52;5.17;;;1.53;;
20671;SDS011;10495;50.922;4.760;2024-02-04T02:30:18;4.27;;;1.60;;
20671;SDS011;10495;50.922;4.760;2024-02-04T02:32:44;2.97;;;1.50;;
20671;SDS011;10495;50.922;4.760;2024-02-04T02:35:14;3.33;;;1.50;;
20671;SDS011;10495;50.922;4.760;2024-02-04T02:37:56;4.00;;;1.27;;
20671;SDS011;10495;50.922;4.760;2024-02-04T02:42:57;3.63;;;1.63;;
20671;SDS011;10495;50.922;4.760;2024-02-04T02:45:28;5.77;;;1.77;;
20671;SDS011;10495;50.922;4.760;2024-02-04T02:47:54;3.70;;;2.43;;
20671;SDS011;10495;50.922;4.760;2024-02-04T02:50:20;2.93;;;1.60;;
20671;SDS011;10495;50.922;4.760;2024-02-04T02:52:46;2.47;;;1.90;;
20671;SDS011;10495;50.922;4.760;2024-02-04T02:55:12;3.80;;;1.80;;
20671;SDS011;10495;50.922;4.760;2024-02-04T02:57:37;3.63;;;2.27;;
20671;SDS011;10495;50.922;4.760;2024-02-04T03:00:03;4.17;;;1.80;;
20671;SDS011;10495;50.922;4.760;2024-02-04T03:02:31;3.67;;;1.90;;
20671;SDS011;10495;50.922;4.760;2024-02-04T03:04:57;2.93;;;1.97;;
20671;SDS011;10495;50.922;4.760;2024-02-04T03:07:22;4.43;;;2.30;;
20671;SDS011;10495;50.922;4.760;2024-02-04T03:09:48;3.87;;;2.50;;
20671;SDS011;10495;50.922;4.760;2024-02-04T03:12:13;4.03;;;3.00;;
20671;SDS011;10495;50.922;4.760;2024-02-04T03:14:39;3.43;;;1.93;;
20671;SDS011;10495;50.922;4.760;2024-02-04T03:17:05;2.83;;;1.67;;
20671;SDS011;10495;50.922;4.760;2024-02-04T03:19:31;2.43;;;1.73;;
20671;SDS011;10495;50.922;4.760;2024-02-04T03:21:57;2.43;;;1.70;;
20671;SDS011;10495;50.922;4.760;2024-02-04T03:24:22;6.07;;;1.80;;
20671;SDS011;10495;50.922;4.760;2024-02-04T03:26:48;4.70;;;2.40;;
20671;SDS011;10495;50.922;4.760;2024-02-04T03:29:13;3.83;;;2.27;;
20671;SDS011;10495;50.922;4.760;2024-02-04T03:31:39;3.47;;;1.93;;
20671;SDS011;10495;50.922;4.760;2024-02-04T03:34:05;4.27;;;2.10;;
20671;SDS011;10495;50.922;4.760;2024-02-04T03:36:30;6.70;;;2.30;;
20671;SDS011;10495;50.922;4.760;2024-02-04T03:38:57;3.37;;;1.77;;
20671;SDS011;10495;50.922;4.760;2024-02-04T03:41:23;3.33;;;2.13;;
20671;SDS011;10495;50.922;4.760;2024-02-04T03:43:48;3.37;;;2.00;;
20671;SDS011;10495;50.922;4.760;2024-02-04T03:46:14;7.10;;;2.30;;
20671;SDS011;10495;50.922;4.760;2024-02-04T03:48:40;4.07;;;2.43;;
20671;SDS011;10495;50.922;4.760;2024-02-04T03:51:06;6.50;;;2.53;;
20671;SDS011;10495;50.922;4.760;2024-02-04T03:53:33;6.23;;;2.37;;
20671;SDS011;10495;50.922;4.760;2024-02-04T03:55:58;2.87;;;2.53;;
20671;SDS011;10495;50.922;4.760;2024-02-04T03:58:24;7.93;;;2.73;;
20671;SDS011;10495;50.922;4.760;2024-02-04T04:00:55;4.93;;;2.37;;
20671;SDS011;10495;50.922;4.760;2024-02-04T04:03:21;2.80;;;2.47;;
20671;SDS011;10495;50.922;4.760;2024-02-04T04:05:47;2.97;;;1.73;;
20671;SDS011;10495;50.922;4.760;2024-02-04T04:08:13;3.77;;;1.97;;
20671;SDS011;10495;50.922;4.760;2024-02-04T04:10:38;4.73;;;1.97;;
20671;SDS011;10495;50.922;4.760;2024-02-04T04:13:04;3.17;;;1.70;;
20671;SDS011;10495;50.922;4.760;2024-02-04T04:15:30;7.33;;;2.90;;
20671;SDS011;10495;50.922;4.760;2024-02-04T04:17:55;2.10;;;1.30;;
20671;SDS011;10495;50.922;4.760;2024-02-04T04:20:21;3.23;;;1.57;;
20671;SDS011;10495;50.922;4.760;2024-02-04T04:22:46;3.20;;;2.07;;
20671;SDS011;10495;50.922;4.760;2024-02-04T04:25:12;2.60;;;1.70;;
20671;SDS011;10495;50.922;4.760;2024-02-04T04:27:39;6.33;;;2.80;;
20671;SDS011;10495;50.922;4.760;2024-02-04T04:30:05;3.80;;;2.27;;
20671;SDS011;10495;50.922;4.760;2024-02-04T04:32:31;3.63;;;2.00;;
20671;SDS011;10495;50.922;4.760;2024-02-04T04:34:57;3.23;;;2.00;;
20671;SDS011;10495;50.922;4.760;2024-02-04T04:37:23;2.13;;;1.37;;
20671;SDS011;10495;50.922;4.760;2024-02-04T04:39:48;3.47;;;1.53;;
20671;SDS011;10495;50.922;4.760;2024-02-04T04:42:14;3.23;;;2.03;;
20671;SDS011;10495;50.922;4.760;2024-02-04T04:44:40;11.57;;;2.73;;
20671;SDS011;10495;50.922;4.760;2024-02-04T04:47:05;3.13;;;1.57;;
20671;SDS011;10495;50.922;4.760;2024-02-04T04:49:31;3.47;;;1.60;;
20671;SDS011;10495;50.922;4.760;2024-02-04T04:51:57;3.90;;;1.97;;
20671;SDS011;10495;50.922;4.760;2024-02-04T04:54:22;2.07;;;1.27;;
20671;SDS011;10495;50.922;4.760;2024-02-04T04:56:48;2.47;;;1.80;;
20671;SDS011;10495;50.922;4.760;2024-02-04T04:59:17;2.70;;;1.53;;
20671;SDS011;10495;50.922;4.760;2024-02-04T05:01:46;2.80;;;1.50;;
20671;SDS011;10495;50.922;4.760;2024-02-04T05:04:15;1.87;;;1.13;;
20671;SDS011;10495;50.922;4.760;2024-02-04T05:06:41;2.40;;;1.27;;
20671;SDS011;10495;50.922;4.760;2024-02-04T05:09:07;3.03;;;1.50;;
20671;SDS011;10495;50.922;4.760;2024-02-04T05:11:33;2.53;;;1.43;;
20671;SDS011;10495;50.922;4.760;2024-02-04T05:13:59;1.97;;;1.60;;
20671;SDS011;10495;50.922;4.760;2024-02-04T05:16:25;1.87;;;1.30;;
20671;SDS011;10495;50.922;4.760;2024-02-04T05:18:50;3.70;;;1.90;;
20671;SDS011;10495;50.922;4.760;2024-02-04T05:21:16;2.00;;;1.60;;
20671;SDS011;10495;50.922;4.760;2024-02-04T05:23:42;2.50;;;1.70;;
20671;SDS011;10495;50.922;4.760;2024-02-04T05:26:07;3.17;;;1.47;;
20671;SDS011;10495;50.922;4.760;2024-02-04T05:28:33;2.63;;;1.50;;
20671;SDS011;10495;50.922;4.760;2024-02-04T05:30:59;1.20;;;0.67;;
20671;SDS011;10495;50.922;4.760;2024-02-04T05:33:27;2.20;;;0.67;;
20671;SDS011;10495;50.922;4.760;2024-02-04T05:35:52;2.43;;;1.10;;
20671;SDS011;10495;50.922;4.760;2024-02-04T05:38:18;2.13;;;1.93;;
20671;SDS011;10495;50.922;4.760;2024-02-04T05:40:44;2.07;;;1.10;;
20671;SDS011;10495;50.922;4.760;2024-02-04T05:43:09;0.93;;;0.83;;
20671;SDS011;10495;50.922;4.760;2024-02-04T05:45:36;2.03;;;1.20;;
20671;SDS011;10495;50.922;4.760;2024-02-04T05:48:03;1.20;;;0.90;;
20671;SDS011;10495;50.922;4.760;2024-02-04T05:50:29;1.00;;;0.90;;
20671;SDS011;10495;50.922;4.760;2024-02-04T05:52:55;1.90;;;1.27;;
20671;SDS011;10495;50.922;4.760;2024-02-04T05:55:21;2.37;;;1.53;;
20671;SDS011;10495;50.922;4.760;2024-02-04T05:57:46;2.73;;;1.53;;
20671;SDS011;10495;50.922;4.760;2024-02-04T06:00:12;2.87;;;1.87;;
20671;SDS011;10495;50.922;4.760;2024-02-04T06:02:39;1.77;;;1.20;;
20671;SDS011;10495;50.922;4.760;2024-02-04T06:05:04;7.43;;;1.63;;
20671;SDS011;10495;50.922;4.760;2024-02-04T06:07:30;2.27;;;1.30;;
20671;SDS011;10495;50.922;4.760;2024-02-04T06:09:56;3.40;;;1.27;;
20671;SDS011;10495;50.922;4.760;2024-02-04T06:12:22;4.70;;;1.30;;
20671;SDS011;10495;50.922;4.760;2024-02-04T06:14:48;0.90;;;0.70;;
20671;SDS011;10495;50.922;4.760;2024-02-04T06:17:13;2.47;;;1.53;;
20671;SDS011;10495;50.922;4.760;2024-02-04T06:19:39;2.67;;;1.60;;
20671;SDS011;10495;50.922;4.760;2024-02-04T06:22:05;3.17;;;1.40;;
20671;SDS011;10495;50.922;4.760;2024-02-04T06:24:31;3.23;;;1.53;;
20671;SDS011;10495;50.922;4.760;2024-02-04T06:26:57;1.43;;;1.07;;
20671;SDS011;10495;50.922;4.760;2024-02-04T06:29:22;4.63;;;1.90;;
20671;SDS011;10495;50.922;4.760;2024-02-04T06:31:48;2.97;;;1.43;;
20671;SDS011;10495;50.922;4.760;2024-02-04T06:34:14;3.50;;;2.27;;
20671;SDS011;10495;50.922;4.760;2024-02-04T06:36:43;6.07;;;2.07;;
20671;SDS011;10495;50.922;4.760;2024-02-04T06:39:09;6.20;;;1.80;;
20671;SDS011;10495;50.922;4.760;2024-02-04T06:41:35;6.93;;;3.10;;
20671;SDS011;10495;50.922;4.760;2024-02-04T06:44:04;3.57;;;2.10;;
20671;SDS011;10495;50.922;4.760;2024-02-04T06:46:30;5.80;;;2.10;;
20671;SDS011;10495;50.922;4.760;2024-02-04T06:48:56;3.93;;;2.23;;
20671;SDS011;10495;50.922;4.760;2024-02-04T06:51:22;3.50;;;1.87;;
20671;SDS011;10495;50.922;4.760;2024-02-04T06:53:47;4.53;;;2.70;;
20671;SDS011;10495;50.922;4.760;2024-02-04T06:56:13;3.83;;;1.57;;
20671;SDS011;10495;50.922;4.760;2024-02-04T06:58:39;3.13;;;1.97;;
20671;SDS011;10495;50.922;4.760;2024-02-04T07:01:06;2.77;;;1.50;;
20671;SDS011;10495;50.922;4.760;2024-02-04T07:03:32;2.37;;;1.33;;
20671;SDS011;10495;50.922;4.760;2024-02-04T07:05:58;4.63;;;2.60;;
20671;SDS011;10495;50.922;4.760;2024-02-04T07:08:24;4.67;;;1.30;;
20671;SDS011;10495;50.922;4.760;2024-02-04T07:10:50;2.20;;;1.67;;
20671;SDS011;10495;50.922;4.760;2024-02-04T07:13:16;3.90;;;1.40;;
20671;SDS011;10495;50.922;4.760;2024-02-04T07:15:42;3.00;;;1.90;;
20671;SDS011;10495;50.922;4.760;2024-02-04T07:18:08;2.00;;;1.47;;
20671;SDS011;10495;50.922;4.760;2024-02-04T07:20:34;3.93;;;1.37;;
20671;SDS011;10495;50.922;4.760;2024-02-04T07:23:00;3.53;;;1.90;;
20671;SDS011;10495;50.922;4.760;2024-02-04T07:25:25;2.60;;;1.80;;
20671;SDS011;10495;50.922;4.760;2024-02-04T07:27:51;3.07;;;1.77;;
20671;SDS011;10495;50.922;4.760;2024-02-04T07:30:17;4.43;;;1.73;;
20671;SDS011;10495;50.922;4.760;2024-02-04T07:32:42;3.23;;;1.50;;
20671;SDS011;10495;50.922;4.760;2024-02-04T07:35:08;4.87;;;1.73;;
20671;SDS011;10495;50.922;4.760;2024-02-04T07:37:37;3.03;;;1.67;;
20671;SDS011;10495;50.922;4.760;2024-02-04T07:40:03;3.07;;;2.13;;
20671;SDS011;10495;50.922;4.760;2024-02-04T07:42:30;7.10;;;1.63;;
20671;SDS011;10495;50.922;4.760;2024-02-04T07:44:56;2.43;;;1.30;;
20671;SDS011;10495;50.922;4.760;2024-02-04T07:47:22;3.70;;;2.03;;
20671;SDS011;10495;50.922;4.760;2024-02-04T07:49:48;2.80;;;1.70;;
20671;SDS011;10495;50.922;4.760;2024-02-04T07:52:14;3.40;;;1.97;;
20671;SDS011;10495;50.922;4.760;2024-02-04T07:54:40;2.10;;;1.47;;
20671;SDS011;10495;50.922;4.760;2024-02-04T07:57:05;6.30;;;2.27;;
20671;SDS011;10495;50.922;4.760;2024-02-04T07:59:31;3.43;;;2.47;;
20671;SDS011;10495;50.922;4.760;2024-02-04T08:01:57;4.33;;;2.13;;
20671;SDS011;10495;50.922;4.760;2024-02-04T08:04:22;3.93;;;1.93;;
20671;SDS011;10495;50.922;4.760;2024-02-04T08:06:48;5.80;;;2.53;;
20671;SDS011;10495;50.922;4.760;2024-02-04T08:09:13;5.73;;;3.00;;
20671;SDS011;10495;50.922;4.760;2024-02-04T08:11:39;4.03;;;2.43;;
20671;SDS011;10495;50.922;4.760;2024-02-04T08:14:05;5.23;;;3.00;;
20671;SDS011;10495;50.922;4.760;2024-02-04T08:16:31;5.50;;;2.47;;
20671;SDS011;10495;50.922;4.760;2024-02-04T08:18:57;2.83;;;1.93;;
20671;SDS011;10495;50.922;4.760;2024-02-04T08:21:23;6.17;;;2.70;;
20671;SDS011;10495;50.922;4.760;2024-02-04T08:23:49;4.33;;;1.87;;
20671;SDS011;10495;50.922;4.760;2024-02-04T08:26:14;5.10;;;2.47;;
20671;SDS011;10495;50.922;4.760;2024-02-04T08:28:40;2.07;;;1.53;;
20671;SDS011;10495;50.922;4.760;2024-02-04T08:31:06;3.07;;;1.97;;
20671;SDS011;10495;50.922;4.760;2024-02-04T08:33:32;2.90;;;1.70;;
20671;SDS011;10495;50.922;4.760;2024-02-04T08:35:57;3.43;;;1.50;;
20671;SDS011;10495;50.922;4.760;2024-02-04T08:38:23;2.87;;;1.50;;
20671;SDS011;10495;50.922;4.760;2024-02-04T08:40:49;1.87;;;1.63;;
20671;SDS011;10495;50.922;4.760;2024-02-04T08:43:15;2.77;;;2.00;;
20671;SDS011;10495;50.922;4.760;2024-02-04T08:45:41;7.87;;;1.80;;
20671;SDS011;10495;50.922;4.760;2024-02-04T08:48:07;2.60;;;1.43;;
20671;SDS011;10495;50.922;4.760;2024-02-04T08:50:33;4.03;;;1.70;;
20671;SDS011;10495;50.922;4.760;2024-02-04T08:52:58;1.37;;;1.23;;
20671;SDS011;10495;50.922;4.760;2024-02-04T08:55:24;3.33;;;1.53;;
20671;SDS011;10495;50.922;4.760;2024-02-04T08:57:50;1.70;;;1.20;;
20671;SDS011;10495;50.922;4.760;2024-02-04T09:00:18;2.43;;;1.67;;
20671;SDS011;10495;50.922;4.760;2024-02-04T09:02:44;1.77;;;1.40;;
20671;SDS011;10495;50.922;4.760;2024-02-04T09:05:11;10.70;;;2.70;;
20671;SDS011;10495;50.922;4.760;2024-02-04T09:07:37;1.43;;;1.30;;
20671;SDS011;10495;50.922;4.760;2024-02-04T09:10:04;6.17;;;2.17;;
20671;SDS011;10495;50.922;4.760;2024-02-04T09:12:30;1.93;;;1.47;;
20671;SDS011;10495;50.922;4.760;2024-02-04T09:14:55;3.77;;;1.50;;
20671;SDS011;10495;50.922;4.760;2024-02-04T09:17:21;2.10;;;1.27;;
20671;SDS011;10495;50.922;4.760;2024-02-04T09:19:47;2.30;;;1.30;;
20671;SDS011;10495;50.922;4.760;2024-02-04T09:22:12;2.17;;;1.47;;
20671;SDS011;10495;50.922;4.760;2024-02-04T09:24:38;1.77;;;1.23;;
20671;SDS011;10495;50.922;4.760;2024-02-04T09:27:04;4.60;;;1.50;;
20671;SDS011;10495;50.922;4.760;2024-02-04T09:29:30;2.13;;;1.40;;
20671;SDS011;10495;50.922;4.760;2024-02-04T09:31:55;3.23;;;1.93;;
20671;SDS011;10495;50.922;4.760;2024-02-04T09:34:21;2.47;;;1.50;;
20671;SDS011;10495;50.922;4.760;2024-02-04T09:36:47;1.33;;;1.00;;
20671;SDS011;10495;50.922;4.760;2024-02-04T09:39:12;2.93;;;1.70;;
20671;SDS011;10495;50.922;4.760;2024-02-04T09:41:38;2.23;;;1.10;;
20671;SDS011;10495;50.922;4.760;2024-02-04T09:44:04;6.17;;;1.80;;
20671;SDS011;10495;50.922;4.760;2024-02-04T09:46:31;2.50;;;0.97;;
20671;SDS011;10495;50.922;4.760;2024-02-04T09:48:57;2.57;;;0.87;;
20671;SDS011;10495;50.922;4.760;2024-02-04T09:51:25;2.33;;;1.37;;
20671;SDS011;10495;50.922;4.760;2024-02-04T09:53:51;1.07;;;0.90;;
20671;SDS011;10495;50.922;4.760;2024-02-04T09:56:18;1.67;;;1.00;;
20671;SDS011;10495;50.922;4.760;2024-02-04T09:58:50;2.60;;;1.03;;
20671;SDS011;10495;50.922;4.760;2024-02-04T10:01:18;1.43;;;1.10;;
20671;SDS011;10495;50.922;4.760;2024-02-04T10:03:44;0.77;;;0.77;;
20671;SDS011;10495;50.922;4.760;2024-02-04T10:06:12;0.97;;;0.73;;
20671;SDS011;10495;50.922;4.760;2024-02-04T10:08:37;3.93;;;2.37;;
20671;SDS011;10495;50.922;4.760;2024-02-04T10:11:03;1.00;;;0.77;;
20671;SDS011;10495;50.922;4.760;2024-02-04T10:13:30;1.73;;;1.27;;
20671;SDS011;10495;50.922;4.760;2024-02-04T10:16:06;1.10;;;0.90;;
20671;SDS011;10495;50.922;4.760;2024-02-04T10:18:32;0.97;;;0.87;;
20671;SDS011;10495;50.922;4.760;2024-02-04T10:20:58;2.53;;;1.10;;
20671;SDS011;10495;50.922;4.760;2024-02-04T10:23:24;1.13;;;0.67;;
20671;SDS011;10495;50.922;4.760;2024-02-04T10:25:56;1.23;;;1.13;;
20671;SDS011;10495;50.922;4.760;2024-02-04T10:28:23;1.33;;;1.20;;
20671;SDS011;10495;50.922;4.760;2024-02-04T10:30:50;1.63;;;1.17;;
20671;SDS011;10495;50.922;4.760;2024-02-04T10:33:16;0.90;;;0.90;;
20671;SDS011;10495;50.922;4.760;2024-02-04T10:35:42;1.20;;;1.10;;
20671;SDS011;10495;50.922;4.760;2024-02-04T10:38:08;1.27;;;1.10;;
20671;SDS011;10495;50.922;4.760;2024-02-04T10:40:35;1.97;;;1.13;;
20671;SDS011;10495;50.922;4.760;2024-02-04T10:43:04;1.83;;;1.03;;
20671;SDS011;10495;50.922;4.760;2024-02-04T10:45:32;1.33;;;0.80;;
20671;SDS011;10495;50.922;4.760;2024-02-04T10:48:00;1.60;;;1.13;;
20671;SDS011;10495;50.922;4.760;2024-02-04T10:50:27;2.13;;;1.27;;
20671;SDS011;10495;50.922;4.760;2024-02-04T10:52:55;0.90;;;0.70;;
20671;SDS011;10495;50.922;4.760;2024-02-04T10:55:28;2.47;;;1.30;;
20671;SDS011;10495;50.922;4.760;2024-02-04T10:57:56;1.20;;;1.00;;
20671;SDS011;10495;50.922;4.760;2024-02-04T11:00:22;1.53;;;1.30;;
20671;SDS011;10495;50.922;4.760;2024-02-04T11:02:48;1.73;;;1.37;;
20671;SDS011;10495;50.922;4.760;2024-02-04T11:05:18;1.40;;;1.07;;
20671;SDS011;10495;50.922;4.760;2024-02-04T11:07:44;4.73;;;1.30;;
20671;SDS011;10495;50.922;4.760;2024-02-04T11:10:10;1.43;;;1.07;;
20671;SDS011;10495;50.922;4.760;2024-02-04T11:12:37;2.20;;;1.30;;
20671;SDS011;10495;50.922;4.760;2024-02-04T11:15:05;1.73;;;1.60;;
20671;SDS011;10495;50.922;4.760;2024-02-04T11:17:57;1.20;;;0.80;;
20671;SDS011;10495;50.922;4.760;2024-02-04T11:23:44;2.50;;;1.17;;
20671;SDS011;10495;50.922;4.760;2024-02-04T11:26:23;3.13;;;1.17;;
20671;SDS011;10495;50.922;4.760;2024-02-04T11:28:50;3.60;;;1.40;;
20671;SDS011;10495;50.922;4.760;2024-02-04T11:31:19;1.30;;;1.20;;
20671;SDS011;10495;50.922;4.760;2024-02-04T11:33:45;1.97;;;1.50;;
20671;SDS011;10495;50.922;4.760;2024-02-04T11:36:14;2.23;;;0.80;;
20671;SDS011;10495;50.922;4.760;2024-02-04T11:38:43;1.00;;;0.70;;
20671;SDS011;10495;50.922;4.760;2024-02-04T11:41:20;1.03;;;0.80;;
20671;SDS011;10495;50.922;4.760;2024-02-04T11:43:51;0.90;;;0.90;;
20671;SDS011;10495;50.922;4.760;2024-02-04T11:46:20;1.20;;;0.80;;
20671;SDS011;10495;50.922;4.760;2024-02-04T11:48:52;0.57;;;0.43;;
20671;SDS011;10495;50.922;4.760;2024-02-04T11:51:21;1.50;;;0.60;;
20671;SDS011;10495;50.922;4.760;2024-02-04T11:53:49;1.27;;;0.73;;
20671;SDS011;10495;50.922;4.760;2024-02-04T11:56:19;1.93;;;1.13;;
20671;SDS011;10495;50.922;4.760;2024-02-04T11:58:45;3.00;;;1.27;;
20671;SDS011;10495;50.922;4.760;2024-02-04T12:01:12;1.00;;;0.63;;
20671;SDS011;10495;50.922;4.760;2024-02-04T12:03:37;0.90;;;0.80;;
20671;SDS011;10495;50.922;4.760;2024-02-04T12:06:03;1.43;;;0.80;;
20671;SDS011;10495;50.922;4.760;2024-02-04T12:08:31;1.13;;;0.60;;
20671;SDS011;10495;50.922;4.760;2024-02-04T12:10:58;8.60;;;1.67;;
20671;SDS011;10495;50.922;4.760;2024-02-04T12:13:26;0.83;;;0.83;;
20671;SDS011;10495;50.922;4.760;2024-02-04T12:15:53;2.50;;;1.07;;
20671;SDS011;10495;50.922;4.760;2024-02-04T12:18:18;0.93;;;0.63;;
20671;SDS011;10495;50.922;4.760;2024-02-04T12:20:47;1.57;;;1.30;;
20671;SDS011;10495;50.922;4.760;2024-02-04T12:23:14;1.57;;;0.80;;
20671;SDS011;10495;50.922;4.760;2024-02-04T12:25:41;1.27;;;0.70;;
20671;SDS011;10495;50.922;4.760;2024-02-04T12:28:07;1.43;;;0.90;;
20671;SDS011;10495;50.922;4.760;2024-02-04T12:30:33;0.93;;;0.67;;
20671;SDS011;10495;50.922;4.760;2024-02-04T12:33:00;0.90;;;0.60;;
20671;SDS011;10495;50.922;4.760;2024-02-04T12:35:29;0.80;;;0.73;;
20671;SDS011;10495;50.922;4.760;2024-02-04T12:37:55;2.63;;;0.70;;
20671;SDS011;10495;50.922;4.760;2024-02-04T12:40:29;2.87;;;0.70;;
20671;SDS011;10495;50.922;4.760;2024-02-04T12:42:56;1.53;;;0.50;;
20671;SDS011;10495;50.922;4.760;2024-02-04T12:45:23;1.23;;;0.73;;
20671;SDS011;10495;50.922;4.760;2024-02-04T12:47:51;2.00;;;0.83;;
20671;SDS011;10495;50.922;4.760;2024-02-04T12:50:18;1.17;;;0.53;;
20671;SDS011;10495;50.922;4.760;2024-02-04T12:52:48;3.13;;;0.70;;
20671;SDS011;10495;50.922;4.760;2024-02-04T12:55:24;0.90;;;0.90;;
20671;SDS011;10495;50.922;4.760;2024-02-04T12:58:14;1.70;;;0.77;;
20671;SDS011;10495;50.922;4.760;2024-02-04T13:00:40;1.27;;;0.80;;
20671;SDS011;10495;50.922;4.760;2024-02-04T13:03:07;1.00;;;0.93;;
20671;SDS011;10495;50.922;4.760;2024-02-04T13:05:33;1.17;;;0.87;;
20671;SDS011;10495;50.922;4.760;2024-02-04T13:07:59;0.90;;;0.60;;
20671;SDS011;10495;50.922;4.760;2024-02-04T13:10:31;2.00;;;0.80;;
20671;SDS011;10495;50.922;4.760;2024-02-04T13:13:08;1.30;;;1.20;;
20671;SDS011;10495;50.922;4.760;2024-02-04T13:15:44;0.60;;;0.60;;
20671;SDS011;10495;50.922;4.760;2024-02-04T13:18:09;0.60;;;0.60;;
20671;SDS011;10495;50.922;4.760;2024-02-04T13:20:36;0.50;;;0.50;;
20671;SDS011;10495;50.922;4.760;2024-02-04T13:23:03;1.17;;;1.00;;
20671;SDS011;10495;50.922;4.760;2024-02-04T13:25:31;0.70;;;0.50;;
20671;SDS011;10495;50.922;4.760;2024-02-04T13:27:57;0.60;;;0.60;;
20671;SDS011;10495;50.922;4.760;2024-02-04T13:30:23;0.70;;;0.67;;
20671;SDS011;10495;50.922;4.760;2024-02-04T13:32:49;0.90;;;0.60;;
20671;SDS011;10495;50.922;4.760;2024-02-04T13:35:16;0.93;;;0.80;;
20671;SDS011;10495;50.922;4.760;2024-02-04T13:37:43;1.10;;;0.90;;
20671;SDS011;10495;50.922;4.760;2024-02-04T13:40:14;1.97;;;0.60;;
20671;SDS011;10495;50.922;4.760;2024-02-04T13:42:40;1.20;;;0.83;;
20671;SDS011;10495;50.922;4.760;2024-02-04T13:45:06;1.27;;;0.40;;
20671;SDS011;10495;50.922;4.760;2024-02-04T13:47:33;0.60;;;0.60;;
20671;SDS011;10495;50.922;4.760;2024-02-04T13:49:59;0.93;;;0.80;;
20671;SDS011;10495;50.922;4.760;2024-02-04T13:52:25;0.63;;;0.60;;
20671;SDS011;10495;50.922;4.760;2024-02-04T13:54:51;1.10;;;0.60;;
20671;SDS011;10495;50.922;4.760;2024-02-04T13:57:16;1.17;;;0.60;;
20671;SDS011;10495;50.922;4.760;2024-02-04T13:59:42;0.90;;;0.60;;
20671;SDS011;10495;50.922;4.760;2024-02-04T14:02:08;2.03;;;0.47;;
20671;SDS011;10495;50.922;4.760;2024-02-04T14:04:34;0.73;;;0.60;;
20671;SDS011;10495;50.922;4.760;2024-02-04T14:07:00;0.60;;;0.47;;
20671;SDS011;10495;50.922;4.760;2024-02-04T14:09:26;0.63;;;0.47;;
20671;SDS011;10495;50.922;4.760;2024-02-04T14:11:52;5.07;;;0.80;;
20671;SDS011;10495;50.922;4.760;2024-02-04T14:14:22;0.67;;;0.40;;
20671;SDS011;10495;50.922;4.760;2024-02-04T14:16:48;0.53;;;0.53;;
20671;SDS011;10495;50.922;4.760;2024-02-04T14:19:14;1.20;;;0.80;;
20671;SDS011;10495;50.922;4.760;2024-02-04T14:21:40;0.70;;;0.70;;
20671;SDS011;10495;50.922;4.760;2024-02-04T14:24:06;0.30;;;0.30;;
20671;SDS011;10495;50.922;4.760;2024-02-04T14:26:33;2.50;;;0.70;;
20671;SDS011;10495;50.922;4.760;2024-02-04T14:28:58;0.60;;;0.60;;
20671;SDS011;10495;50.922;4.760;2024-02-04T14:31:24;0.70;;;0.70;;
20671;SDS011;10495;50.922;4.760;2024-02-04T14:33:50;3.07;;;0.97;;
20671;SDS011;10495;50.922;4.760;2024-02-04T14:36:16;2.27;;;1.07;;
20671;SDS011;10495;50.922;4.760;2024-02-04T14:38:41;0.93;;;0.63;;
20671;SDS011;10495;50.922;4.760;2024-02-04T14:41:07;0.80;;;0.70;;
20671;SDS011;10495;50.922;4.760;2024-02-04T14:43:34;1.83;;;0.70;;
20671;SDS011;10495;50.922;4.760;2024-02-04T14:46:00;1.60;;;0.70;;
20671;SDS011;10495;50.922;4.760;2024-02-04T14:48:26;1.00;;;0.80;;
20671;SDS011;10495;50.922;4.760;2024-02-04T14:50:52;2.27;;;0.87;;
20671;SDS011;10495;50.922;4.760;2024-02-04T14:53:19;0.63;;;0.57;;